createdAt,value
2023-01-12T00:02:01.495Z,9.40
2023-01-12T00:04:30.879Z,9.40
2023-01-12T00:07:02.069Z,9.40
2023-01-12T00:09:29.081Z,9.40
2023-01-12T00:11:56.093Z,9.40
2023-01-12T00:14:23.106Z,9.40
2023-01-12T00:16:50.199Z,9.40
2023-01-12T00:19:22.740Z,9.40
2023-01-12T00:21:59.607Z,9.40
2023-01-12T00:24:31.774Z,9.40
2023-01-12T00:27:01.173Z,9.40
2023-01-12T00:29:28.737Z,9.40
2023-01-12T00:31:57.745Z,9.40
2023-01-12T00:34:29.572Z,9.40
2023-01-12T00:36:57.457Z,9.40
2023-01-12T00:39:24.757Z,9.40
2023-01-12T00:42:09.989Z,9.40
2023-01-12T00:44:55.661Z,9.40
2023-01-12T00:47:22.653Z,9.40
2023-01-12T00:49:50.100Z,9.40
2023-01-12T00:52:31.630Z,9.40
2023-01-12T00:54:59.968Z,9.30
2023-01-12T00:57:28.396Z,9.40
2023-01-12T00:59:58.159Z,9.40
2023-01-12T01:02:26.317Z,9.40
2023-01-12T01:04:53.359Z,9.40
2023-01-12T01:07:21.733Z,9.40
2023-01-12T01:09:49.409Z,9.40
2023-01-12T01:12:16.741Z,9.40
2023-01-12T01:14:43.702Z,9.30
2023-01-12T01:17:10.684Z,9.30
2023-01-12T01:19:37.677Z,9.30
2023-01-12T01:22:04.711Z,9.20
2023-01-12T01:24:31.692Z,9.20
2023-01-12T01:26:58.620Z,9.10
2023-01-12T01:29:25.572Z,9.10
2023-01-12T01:31:55.802Z,9.10
2023-01-12T01:34:26.356Z,9.10
2023-01-12T01:36:53.382Z,9.20
2023-01-12T01:39:20.341Z,9.10
2023-01-12T01:41:48.201Z,9.10
2023-01-12T01:44:30.472Z,9.10
2023-01-12T01:47:08.719Z,9.20
2023-01-12T01:49:50.011Z,9.20
2023-01-12T01:52:29.761Z,9.20
2023-01-12T01:55:16.489Z,9.20
2023-01-12T01:57:52.699Z,9.20
2023-01-12T02:00:20.134Z,9.20
2023-01-12T02:02:51.444Z,9.20
2023-01-12T02:05:23.384Z,9.20
2023-01-12T02:07:52.117Z,9.20
2023-01-12T02:10:20.973Z,9.20
2023-01-12T02:13:06.706Z,9.20
2023-01-12T02:16:20.379Z,9.20
2023-01-12T02:19:24.224Z,9.30
2023-01-12T02:22:18.346Z,9.30
2023-01-12T02:24:47.847Z,9.30
2023-01-12T02:28:00.765Z,9.30
2023-01-12T02:31:19.834Z,9.30
2023-01-12T02:33:59.072Z,9.40
2023-01-12T02:36:38.232Z,9.30
2023-01-12T02:39:33.619Z,9.40
2023-01-12T02:42:28.903Z,9.30
2023-01-12T02:45:26.165Z,9.40
2023-01-12T02:48:16.666Z,9.40
2023-01-12T02:51:27.137Z,9.30
2023-01-12T02:54:01.486Z,9.30
2023-01-12T02:56:37.391Z,9.30
2023-01-12T02:59:28.898Z,9.30
2023-01-12T03:02:14.993Z,9.30
2023-01-12T03:04:42.422Z,9.40
2023-01-12T03:07:31.224Z,9.40
2023-01-12T03:10:37.550Z,9.40
2023-01-12T03:13:11.136Z,9.40
2023-01-12T03:15:43.852Z,9.40
2023-01-12T03:18:19.945Z,9.50
2023-01-12T03:21:27.004Z,9.50
2023-01-12T03:24:10.683Z,9.50
2023-01-12T03:26:52.092Z,9.50
2023-01-12T03:29:27.367Z,9.60
2023-01-12T03:31:55.838Z,9.60
2023-01-12T03:34:23.683Z,9.60
2023-01-12T03:37:12.912Z,9.60
2023-01-12T03:39:45.777Z,9.60
2023-01-12T03:42:46.782Z,9.50
2023-01-12T03:45:42.901Z,9.50
2023-01-12T03:48:23.458Z,9.50
2023-01-12T03:51:24.022Z,9.50
2023-01-12T03:53:52.564Z,9.50
2023-01-12T03:56:24.026Z,9.40
2023-01-12T03:58:51.618Z,9.40
2023-01-12T04:01:19.049Z,9.40
2023-01-12T04:03:46.293Z,9.40
2023-01-12T04:06:13.399Z,9.40
2023-01-12T04:08:40.485Z,9.40
2023-01-12T04:11:26.897Z,9.40
2023-01-12T04:13:53.986Z,9.40
2023-01-12T04:16:21.087Z,9.40
2023-01-12T04:18:48.296Z,9.40
2023-01-12T04:21:33.658Z,9.40
2023-01-12T04:24:00.742Z,9.40
2023-01-12T04:26:27.847Z,9.40
2023-01-12T04:28:54.866Z,9.50
2023-01-12T04:31:21.903Z,9.50
2023-01-12T04:33:49.100Z,9.50
2023-01-12T04:36:16.032Z,9.50
2023-01-12T04:38:43.129Z,9.60
2023-01-12T04:41:12.958Z,9.50
2023-01-12T04:44:00.118Z,9.50
2023-01-12T04:46:27.181Z,9.60
2023-01-12T04:48:54.115Z,9.60
2023-01-12T04:51:21.179Z,9.60
2023-01-12T04:53:48.353Z,9.70
2023-01-12T04:56:15.367Z,9.70
2023-01-12T04:58:42.444Z,9.70
2023-01-12T05:01:21.019Z,9.70
2023-01-12T05:03:48.095Z,9.70
2023-01-12T05:06:18.141Z,9.70
2023-01-12T05:09:03.438Z,9.70
2023-01-12T05:11:30.843Z,9.80
2023-01-12T05:13:58.171Z,9.70
2023-01-12T05:16:25.950Z,9.70
2023-01-12T05:18:54.626Z,9.70
2023-01-12T05:21:23.323Z,9.70
2023-01-12T05:23:52.431Z,9.70
2023-01-12T05:26:19.952Z,9.70
2023-01-12T05:28:51.272Z,9.80
2023-01-12T05:31:19.691Z,9.80
2023-01-12T05:33:47.840Z,9.80
2023-01-12T05:36:17.051Z,9.80
2023-01-12T05:38:44.298Z,9.80
2023-01-12T05:41:14.523Z,9.80
2023-01-12T05:43:52.048Z,9.80
2023-01-12T05:46:26.770Z,9.70
2023-01-12T05:48:55.860Z,9.80
2023-01-12T05:51:25.686Z,9.80
2023-01-12T05:53:52.837Z,9.80
2023-01-12T05:56:26.373Z,9.80
2023-01-12T05:58:59.154Z,9.80
2023-01-12T06:01:28.024Z,9.80
2023-01-12T06:03:57.630Z,9.80
2023-01-12T06:06:27.887Z,9.90
2023-01-12T06:08:55.115Z,9.90
2023-01-12T06:11:41.007Z,9.90
2023-01-12T06:14:09.940Z,9.90
2023-01-12T06:16:42.859Z,9.90
2023-01-12T06:19:13.042Z,9.80
2023-01-12T06:21:40.630Z,9.90
2023-01-12T06:24:08.503Z,9.80
2023-01-12T06:26:35.607Z,9.90
2023-01-12T06:29:05.485Z,9.80
2023-01-12T06:31:33.269Z,9.90
2023-01-12T06:34:00.295Z,9.90
2023-01-12T06:36:27.285Z,9.90
2023-01-12T06:38:54.225Z,9.90
2023-01-12T06:41:40.266Z,10.00
2023-01-12T06:44:07.233Z,10.00
2023-01-12T06:46:34.245Z,10.00
2023-01-12T06:49:01.280Z,10.00
2023-01-12T06:51:28.428Z,10.00
2023-01-12T06:53:55.766Z,10.00
2023-01-12T06:56:23.186Z,10.10
2023-01-12T06:58:50.365Z,10.10
2023-01-12T07:01:20.683Z,10.10
2023-01-12T07:03:47.666Z,10.10
2023-01-12T07:06:14.648Z,10.10
2023-01-12T07:08:42.878Z,10.10
2023-01-12T07:11:12.717Z,10.10
2023-01-12T07:13:39.851Z,10.10
2023-01-12T07:16:07.549Z,10.10
2023-01-12T07:18:34.652Z,10.10
2023-01-12T07:21:06.110Z,10.10
2023-01-12T07:23:33.252Z,10.20
2023-01-12T07:26:00.166Z,10.20
2023-01-12T07:28:27.392Z,10.20
2023-01-12T07:31:01.446Z,10.20
2023-01-12T07:33:28.598Z,10.20
2023-01-12T07:36:02.121Z,10.20
2023-01-12T07:38:30.985Z,10.20
2023-01-12T07:41:03.079Z,10.30
2023-01-12T07:43:32.335Z,10.30
2023-01-12T07:46:00.065Z,10.30
2023-01-12T07:48:27.601Z,10.30
2023-01-12T07:50:54.972Z,10.30
2023-01-12T07:53:22.147Z,10.30
2023-01-12T07:55:49.179Z,10.30
2023-01-12T07:58:16.200Z,10.20
2023-01-12T08:00:43.218Z,10.30
2023-01-12T08:03:14.132Z,10.30
2023-01-12T08:05:41.527Z,10.30
2023-01-12T08:08:08.605Z,10.30
2023-01-12T08:10:37.634Z,10.30
2023-01-12T08:13:04.586Z,10.40
2023-01-12T08:15:37.622Z,10.40
2023-01-12T08:18:14.137Z,10.40
2023-01-12T08:20:41.270Z,10.40
2023-01-12T08:23:21.903Z,10.40
2023-01-12T08:25:56.548Z,10.40
2023-01-12T08:28:43.648Z,10.50
2023-01-12T08:31:14.000Z,10.40
2023-01-12T08:33:43.470Z,10.40
2023-01-12T08:38:45.724Z,10.50
2023-01-12T08:41:30.847Z,10.40
2023-01-12T08:44:05.166Z,10.50
2023-01-12T08:46:39.571Z,10.40
2023-01-12T08:49:11.548Z,10.50
2023-01-12T08:51:44.353Z,10.50
2023-01-12T08:54:14.786Z,10.50
2023-01-12T08:56:41.973Z,10.40
2023-01-12T08:59:09.160Z,10.40
2023-01-12T09:01:37.434Z,10.40
2023-01-12T09:04:05.490Z,10.40
2023-01-12T09:06:38.276Z,10.50
2023-01-12T09:09:10.007Z,10.50
2023-01-12T09:11:39.116Z,10.50
2023-01-12T09:14:06.487Z,10.50
2023-01-12T09:16:34.432Z,10.50
2023-01-12T09:19:01.712Z,10.50
2023-01-12T09:21:30.767Z,10.50
2023-01-12T09:23:58.480Z,10.50
2023-01-12T09:26:32.180Z,10.50
2023-01-12T09:29:04.383Z,10.60
2023-01-12T09:31:32.849Z,10.60
2023-01-12T09:34:00.603Z,10.60
2023-01-12T09:36:33.799Z,10.60
2023-01-12T09:39:04.402Z,10.60
2023-01-12T09:41:54.579Z,10.60
2023-01-12T09:44:54.286Z,10.60
2023-01-12T09:47:50.707Z,10.70
2023-01-12T09:50:32.537Z,10.70
2023-01-12T09:53:12.756Z,10.70
2023-01-12T09:55:59.214Z,10.80
2023-01-12T09:58:48.944Z,10.80
2023-01-12T10:01:28.662Z,10.80
2023-01-12T10:03:58.672Z,10.90
2023-01-12T10:06:25.729Z,10.90
2023-01-12T10:09:01.152Z,10.90
2023-01-12T10:11:52.710Z,10.90
2023-01-12T10:15:03.332Z,10.90
2023-01-12T10:17:38.786Z,10.90
2023-01-12T10:20:16.867Z,10.90
2023-01-12T10:22:56.029Z,10.90
2023-01-12T10:25:44.603Z,11.00
2023-01-12T10:28:33.243Z,11.00
2023-01-12T10:31:01.302Z,11.00
2023-01-12T10:33:31.738Z,10.90
2023-01-12T10:36:17.192Z,10.90
2023-01-12T10:39:03.428Z,10.90
2023-01-12T10:41:39.960Z,10.90
2023-01-12T10:44:15.874Z,10.90
2023-01-12T10:46:43.050Z,10.90
2023-01-12T10:49:20.887Z,10.90
2023-01-12T10:52:00.995Z,10.90
2023-01-12T10:54:34.267Z,10.90
2023-01-12T10:57:22.439Z,10.80
2023-01-12T11:00:02.638Z,10.80
2023-01-12T11:02:44.231Z,10.80
2023-01-12T11:05:38.412Z,10.80
2023-01-12T11:08:28.331Z,10.80
2023-01-12T11:10:55.297Z,10.80
2023-01-12T11:13:36.596Z,10.90
2023-01-12T11:16:33.839Z,10.80
2023-01-12T11:19:22.730Z,10.80
2023-01-12T11:22:02.602Z,10.80
2023-01-12T11:25:03.457Z,10.90
2023-01-12T11:27:54.792Z,10.90
2023-01-12T11:30:44.289Z,10.80
2023-01-12T11:33:21.948Z,10.80
2023-01-12T11:36:00.432Z,10.80
2023-01-12T11:39:07.272Z,10.80
2023-01-12T11:42:19.623Z,10.80
2023-01-12T11:45:06.272Z,10.80
2023-01-12T11:47:56.667Z,10.80
2023-01-12T11:50:29.468Z,10.80
2023-01-12T11:52:58.053Z,10.80
2023-01-12T11:55:50.483Z,10.80
2023-01-12T11:58:34.864Z,10.80
2023-01-12T12:01:35.920Z,10.80
2023-01-12T12:04:42.146Z,10.80
2023-01-12T12:07:41.715Z,10.80
2023-01-12T12:10:39.169Z,10.80
2023-01-12T12:13:39.946Z,10.80
2023-01-12T12:16:22.337Z,10.80
2023-01-12T12:19:18.725Z,10.80
2023-01-12T12:22:02.046Z,10.80
2023-01-12T12:24:37.909Z,10.90
2023-01-12T12:27:19.994Z,10.90
2023-01-12T12:30:11.791Z,10.90
2023-01-12T12:33:00.420Z,10.90
2023-01-12T12:35:53.124Z,10.90
2023-01-12T12:38:55.929Z,10.90
2023-01-12T12:42:04.865Z,10.90
2023-01-12T12:45:17.917Z,10.90
2023-01-12T12:47:55.867Z,10.90
2023-01-12T12:50:39.827Z,10.90
2023-01-12T12:53:12.783Z,10.90
2023-01-12T12:55:40.450Z,10.90
2023-01-12T12:58:29.920Z,10.90
2023-01-12T13:01:19.838Z,11.00
2023-01-12T13:04:06.946Z,10.90
2023-01-12T13:06:50.256Z,10.90
2023-01-12T13:09:17.212Z,10.90
2023-01-12T13:11:55.558Z,11.00
2023-01-12T13:14:37.729Z,10.90
2023-01-12T13:17:20.146Z,11.00
2023-01-12T13:20:08.370Z,11.00
2023-01-12T13:22:45.393Z,11.00
2023-01-12T13:25:19.524Z,10.90
2023-01-12T13:28:01.550Z,10.90
2023-01-12T13:30:31.333Z,10.90
2023-01-12T13:33:20.325Z,11.00
2023-01-12T13:35:47.182Z,11.00
2023-01-12T13:38:34.190Z,11.00
2023-01-12T13:41:52.746Z,11.00
2023-01-12T13:44:35.158Z,11.00
2023-01-12T13:47:09.368Z,11.00
2023-01-12T13:49:49.575Z,11.00
2023-01-12T13:52:32.211Z,11.00
2023-01-12T13:54:59.523Z,10.90
2023-01-12T13:57:30.406Z,11.00
2023-01-12T14:00:22.049Z,10.90
2023-01-12T14:02:49.182Z,11.00
2023-01-12T14:05:26.422Z,10.90
2023-01-12T14:08:39.587Z,11.00
2023-01-12T14:11:43.474Z,11.00
2023-01-12T14:14:55.957Z,11.00
2023-01-12T14:17:51.995Z,11.00
2023-01-12T14:20:27.316Z,10.90
2023-01-12T14:23:35.258Z,10.90
2023-01-12T14:26:06.468Z,11.00
2023-01-12T14:28:34.333Z,11.00
2023-01-12T14:31:07.530Z,11.00
2023-01-12T14:33:37.737Z,11.00
2023-01-12T14:36:12.596Z,11.00
2023-01-12T14:38:44.266Z,11.00
2023-01-12T14:41:53.841Z,11.00
2023-01-12T14:44:44.505Z,11.00
2023-01-12T14:47:30.497Z,11.10
2023-01-12T14:50:19.481Z,11.10
2023-01-12T14:52:48.480Z,11.00
2023-01-12T14:55:25.357Z,11.00
2023-01-12T14:57:58.995Z,11.00
2023-01-12T15:00:32.832Z,11.00
2023-01-12T15:03:04.830Z,11.00
2023-01-12T15:05:36.765Z,11.00
2023-01-12T15:08:31.061Z,11.00
2023-01-12T15:11:05.372Z,11.00
2023-01-12T15:13:35.124Z,11.00
2023-01-12T15:16:22.560Z,11.00
2023-01-12T15:19:08.175Z,11.00
2023-01-12T15:21:55.777Z,11.00
2023-01-12T15:24:50.406Z,11.00
2023-01-12T15:27:22.585Z,11.00
2023-01-12T15:29:49.732Z,11.00
2023-01-12T15:32:46.450Z,11.00
2023-01-12T15:35:23.577Z,11.00
2023-01-12T15:37:53.488Z,11.00
2023-01-12T15:40:21.555Z,11.00
2023-01-12T15:42:53.056Z,11.00
2023-01-12T15:45:38.937Z,11.00
2023-01-12T15:48:06.881Z,11.00
2023-01-12T15:50:37.398Z,11.00
2023-01-12T15:53:12.399Z,11.00
2023-01-12T15:55:40.053Z,11.00
2023-01-12T15:58:07.547Z,11.00
2023-01-12T16:00:34.834Z,11.00
2023-01-12T16:03:01.808Z,11.10
2023-01-12T16:05:28.882Z,11.00
2023-01-12T16:07:55.940Z,11.10
2023-01-12T16:10:23.416Z,11.10
2023-01-12T16:12:50.507Z,11.10
2023-01-12T16:15:24.267Z,11.10
2023-01-12T16:17:51.965Z,11.10
2023-01-12T16:20:20.411Z,11.10
2023-01-12T16:22:48.367Z,11.10
2023-01-12T16:25:16.334Z,11.10
2023-01-12T16:27:43.503Z,11.10
2023-01-12T16:30:14.927Z,11.10
2023-01-12T16:32:46.478Z,11.10
2023-01-12T16:35:15.659Z,11.10
2023-01-12T16:37:43.394Z,11.10
2023-01-12T16:40:11.573Z,11.10
2023-01-12T16:42:38.571Z,11.10
2023-01-12T16:45:06.388Z,11.10
2023-01-12T16:47:33.588Z,11.10
2023-01-12T16:50:00.768Z,11.10
2023-01-12T16:52:27.825Z,11.10
2023-01-12T16:54:54.749Z,11.10
2023-01-12T16:57:21.786Z,11.10
2023-01-12T16:59:49.715Z,11.10
2023-01-12T17:02:18.679Z,11.10
2023-01-12T17:04:47.937Z,11.10
2023-01-12T17:07:15.099Z,11.10
2023-01-12T17:09:42.571Z,11.10
2023-01-12T17:12:10.005Z,11.10
2023-01-12T17:14:37.150Z,11.10
2023-01-12T17:17:08.649Z,11.10
2023-01-12T17:19:38.438Z,11.10
2023-01-12T17:22:07.835Z,11.10
2023-01-12T17:24:39.677Z,11.10
2023-01-12T17:27:07.701Z,11.00
2023-01-12T17:29:34.783Z,11.00
2023-01-12T17:32:06.964Z,11.00
2023-01-12T17:34:39.032Z,11.10
2023-01-12T17:37:09.775Z,11.00
2023-01-12T17:39:45.108Z,11.00
2023-01-12T17:42:36.431Z,11.00
2023-01-12T17:45:04.444Z,11.00
2023-01-12T17:47:31.697Z,11.00
2023-01-12T17:49:58.818Z,11.00
2023-01-12T17:52:26.288Z,11.00
2023-01-12T17:54:53.648Z,11.00
2023-01-12T17:57:20.935Z,11.00
2023-01-12T17:59:49.987Z,11.00
2023-01-12T18:02:18.180Z,11.00
2023-01-12T18:04:46.693Z,11.00
2023-01-12T18:07:13.692Z,11.00
2023-01-12T18:09:42.014Z,10.90
2023-01-12T18:12:10.499Z,11.00
2023-01-12T18:14:37.700Z,11.00
2023-01-12T18:17:04.725Z,10.90
2023-01-12T18:19:31.793Z,11.00
2023-01-12T18:21:58.832Z,10.90
2023-01-12T18:24:25.899Z,10.90
2023-01-12T18:26:52.830Z,11.00
2023-01-12T18:29:19.775Z,10.90
2023-01-12T18:31:47.377Z,11.00
2023-01-12T18:34:16.652Z,10.90
2023-01-12T18:36:43.894Z,10.90
2023-01-12T18:39:23.369Z,11.00
2023-01-12T18:42:09.429Z,11.00
2023-01-12T18:44:40.095Z,11.00
2023-01-12T18:47:25.958Z,11.00
2023-01-12T18:49:57.535Z,10.90
2023-01-12T18:52:43.330Z,10.90
2023-01-12T18:55:10.293Z,11.00
2023-01-12T18:57:37.231Z,11.00
2023-01-12T19:00:16.316Z,11.00
2023-01-12T19:02:44.070Z,11.00
2023-01-12T19:05:23.304Z,11.00
2023-01-12T19:08:03.872Z,11.00
2023-01-12T19:10:33.684Z,11.00
2023-01-12T19:13:19.278Z,11.00
2023-01-12T19:16:05.152Z,11.10
2023-01-12T19:18:35.819Z,11.10
2023-01-12T19:21:27.649Z,11.10
2023-01-12T19:24:13.262Z,11.10
2023-01-12T19:26:58.875Z,11.10
2023-01-12T19:29:25.791Z,11.10
2023-01-12T19:31:52.745Z,11.20
2023-01-12T19:34:19.745Z,11.20
2023-01-12T19:36:46.776Z,11.10
2023-01-12T19:39:13.758Z,11.20
2023-01-12T19:41:58.905Z,11.20
2023-01-12T19:44:25.876Z,11.20
2023-01-12T19:46:52.874Z,11.20
2023-01-12T19:49:19.839Z,11.10
2023-01-12T19:51:47.305Z,11.10
2023-01-12T19:54:14.311Z,11.10
2023-01-12T19:56:41.307Z,11.10
2023-01-12T19:59:08.347Z,11.10
2023-01-12T20:01:35.571Z,11.10
2023-01-12T20:04:03.263Z,11.10
2023-01-12T20:06:30.384Z,11.10
2023-01-12T20:08:57.447Z,11.10
2023-01-12T20:11:24.401Z,11.10
2023-01-12T20:13:51.463Z,11.10
2023-01-12T20:16:18.475Z,11.10
2023-01-12T20:18:45.543Z,11.20
2023-01-12T20:21:13.373Z,11.10
2023-01-12T20:23:40.359Z,11.20
2023-01-12T20:26:11.411Z,11.20
2023-01-12T20:28:39.795Z,11.20
2023-01-12T20:31:12.724Z,11.10
2023-01-12T20:33:40.585Z,11.20
2023-01-12T20:36:17.146Z,11.20
2023-01-12T20:38:46.826Z,11.10
2023-01-12T20:41:14.001Z,11.20
2023-01-12T20:43:40.978Z,11.10
2023-01-12T20:46:12.794Z,11.10
2023-01-12T20:48:44.790Z,11.10
2023-01-12T20:51:15.320Z,11.10
2023-01-12T20:53:42.945Z,11.10
2023-01-12T20:56:10.856Z,11.10
2023-01-12T20:58:37.917Z,10.90
2023-01-12T21:01:13.472Z,10.80
2023-01-12T21:03:41.111Z,10.70
2023-01-12T21:06:13.382Z,10.50
2023-01-12T21:08:44.755Z,10.50
2023-01-12T21:11:15.619Z,10.50
2023-01-12T21:13:43.109Z,10.50
2023-01-12T21:16:14.846Z,10.50
2023-01-12T21:18:42.122Z,10.50
2023-01-12T21:21:10.455Z,10.50
2023-01-12T21:23:37.582Z,10.50
2023-01-12T21:26:07.755Z,10.50
2023-01-12T21:28:38.244Z,10.40
2023-01-12T21:31:08.565Z,10.40
2023-01-12T21:33:35.746Z,10.40
2023-01-12T21:36:03.572Z,10.40
2023-01-12T21:38:31.220Z,10.30
2023-01-12T21:41:04.201Z,10.30
2023-01-12T21:43:32.193Z,10.30
2023-01-12T21:46:07.126Z,10.20
2023-01-12T21:48:34.408Z,10.20
2023-01-12T21:51:07.409Z,10.20
2023-01-12T21:53:35.271Z,10.30
2023-01-12T21:56:04.804Z,10.30
2023-01-12T21:58:34.563Z,10.20
2023-01-12T22:01:15.658Z,10.20
2023-01-12T22:03:42.906Z,10.20
2023-01-12T22:06:12.686Z,10.10
2023-01-12T22:08:41.820Z,10.10
2023-01-12T22:11:12.207Z,10.10
2023-01-12T22:13:39.578Z,10.10
2023-01-12T22:16:10.239Z,10.00
2023-01-12T22:18:38.855Z,10.10
2023-01-12T22:21:10.159Z,10.10
2023-01-12T22:23:38.275Z,10.00
2023-01-12T22:26:09.461Z,10.00
2023-01-12T22:28:39.580Z,10.10
2023-01-12T22:31:22.964Z,10.10
2023-01-12T22:34:03.891Z,10.10
2023-01-12T22:36:35.073Z,10.10
2023-01-12T22:39:02.505Z,10.10
2023-01-12T22:41:29.478Z,10.10
2023-01-12T22:43:56.439Z,10.10
2023-01-12T22:46:27.873Z,10.00
2023-01-12T22:48:57.306Z,10.10
2023-01-12T22:51:26.661Z,10.00
2023-01-12T22:53:55.520Z,10.00
2023-01-12T22:56:23.064Z,10.00
2023-01-12T22:58:53.109Z,9.90
2023-01-12T23:01:21.950Z,9.90
2023-01-12T23:03:54.233Z,9.90
2023-01-12T23:06:25.130Z,9.90
2023-01-12T23:08:52.810Z,9.90
2023-01-12T23:11:23.601Z,9.80
2023-01-12T23:13:51.699Z,9.80
2023-01-12T23:16:19.589Z,9.80
2023-01-12T23:18:48.162Z,9.80
2023-01-12T23:21:27.167Z,9.80
2023-01-12T23:23:59.482Z,9.70
2023-01-12T23:26:31.651Z,9.80
2023-01-12T23:29:00.829Z,9.80
2023-01-12T23:31:31.054Z,9.80
2023-01-12T23:33:58.100Z,9.80
2023-01-12T23:36:27.936Z,9.80
2023-01-12T23:38:57.992Z,9.80
2023-01-12T23:41:27.919Z,9.80
2023-01-12T23:43:59.325Z,9.80
2023-01-12T23:46:29.068Z,9.80
2023-01-12T23:48:57.852Z,9.70
2023-01-12T23:51:27.442Z,9.70
2023-01-12T23:54:00.679Z,9.70
2023-01-12T23:56:32.884Z,9.60
2023-01-12T23:58:59.846Z,9.60
